»·PEaware :: N5954W KTOA-KHMT

N5954W :: KTOA-KHMT

FLIGHT INFORMATION

Flight Status: Arrived
Operator: Privately registered:
United States
More flights under this callsign
Pilot: Joshua M. (19482)
Aircraft: Unknown
(LEG2)
More flights by this aircraft type
Origin: KTOA Zamperini
United States
Destination: KHMT Hemet-Ryan
United States
More flights between these airports :: More routes between these airports
Route: +LAX170 LIMBO V64 SLI V8 PDZ V186 WESIN
File this flight plan on PilotEdge
Remarks:
Altitude:
(Current/Filed)
5,000ft
Speed:
(Current/Filed)
150kts
Departed: 02-Aug-18 07:59 PM
Arrived: 02-Aug-18 08:41 PM
Distance/Time
Traveled:
66nm/0:42
Distance/Time
To Go:
Arrived

Flight Plot

Page will automatically refresh every two minutes.

Flight plan parsing failed; only flown route is shown


Map Options




Map Legend


Flown Route
Filed Route
Departure Airport
Arrival Airport
Navaid (VOR, NDB)
Fix

Horizontal Profiles

Position Reports

Time Latitude Longitude Heading Altitude Ground
Speed
02-Aug-18 19:48 33.797848 -118.335907 51 107ft 0kts
02-Aug-18 19:49 33.797848 -118.335907 51 107ft 0kts
02-Aug-18 19:50 33.797848 -118.335907 51 107ft 0kts
02-Aug-18 19:51 33.797848 -118.335907 51 107ft 0kts
02-Aug-18 19:52 33.797848 -118.335907 51 107ft 0kts
02-Aug-18 19:53 33.797848 -118.335907 51 107ft 0kts
02-Aug-18 19:54 33.797848 -118.335907 51 107ft 0kts
02-Aug-18 19:55 33.797848 -118.335907 51 107ft 0kts
02-Aug-18 19:56 33.797859 -118.335895 41 107ft 0kts
02-Aug-18 19:57 33.797813 -118.334390 28 107ft 2kts
02-Aug-18 19:58 33.799062 -118.333335 37 107ft 0kts
02-Aug-18 19:59 33.799067 -118.333330 37 107ft 0kts
02-Aug-18 20:00 33.801201 -118.335374 308 107ft 65kts
02-Aug-18 20:01 33.817369 -118.358164 307 739ft 110kts
02-Aug-18 20:02 33.840983 -118.391564 307 1255ft 123kts
02-Aug-18 20:03 33.862316 -118.421375 307 1742ft 124kts
02-Aug-18 20:04 33.875720 -118.456944 230 2258ft 131kts
02-Aug-18 20:05 33.836393 -118.458667 178 2799ft 163kts
02-Aug-18 20:06 33.789058 -118.453413 178 3302ft 177kts
02-Aug-18 20:07 33.762984 -118.413645 86 3814ft 189kts
02-Aug-18 20:08 33.765900 -118.350435 84 4304ft 190kts
02-Aug-18 20:09 33.769543 -118.288639 84 4781ft 189kts
02-Aug-18 20:10 33.773440 -118.223678 85 4994ft 200kts
02-Aug-18 20:11 33.777429 -118.156482 86 4991ft 201kts
02-Aug-18 20:12 33.781177 -118.092710 86 4992ft 190kts
02-Aug-18 20:13 33.789808 -118.031038 73 4991ft 190kts
02-Aug-18 20:14 33.805326 -117.970329 73 4990ft 191kts
02-Aug-18 20:15 33.820739 -117.910654 72 4989ft 191kts
02-Aug-18 20:16 33.835070 -117.855138 72 4989ft 192kts
02-Aug-18 20:17 33.850254 -117.796165 72 4988ft 192kts
02-Aug-18 20:18 33.863401 -117.745004 72 4990ft 193kts
02-Aug-18 20:19 33.876119 -117.695427 71 4990ft 194kts
02-Aug-18 20:20 33.890626 -117.638749 70 4993ft 195kts
02-Aug-18 20:21 33.906430 -117.576944 70 4960ft 197kts
02-Aug-18 20:22 33.903773 -117.519548 139 4957ft 194kts
02-Aug-18 20:23 33.860467 -117.481397 146 4966ft 194kts
02-Aug-18 20:24 33.816542 -117.444572 146 4973ft 194kts
02-Aug-18 20:25 33.772670 -117.407854 145 4982ft 195kts
02-Aug-18 20:26 33.728548 -117.370973 145 4990ft 195kts
02-Aug-18 20:27 33.691692 -117.340199 146 4974ft 126kts
02-Aug-18 20:28 33.662660 -117.316023 146 5001ft 141kts
02-Aug-18 20:29 33.633767 -117.292466 144 4982ft 122kts
02-Aug-18 20:30 33.606466 -117.269262 146 4997ft 127kts
02-Aug-18 20:31 33.579848 -117.241349 96 4992ft 132kts
02-Aug-18 20:32 33.599042 -117.207533 43 4500ft 118kts
02-Aug-18 20:33 33.621408 -117.177979 43 4021ft 122kts
02-Aug-18 20:34 33.642373 -117.150197 43 3939ft 114kts
02-Aug-18 20:35 33.664370 -117.121045 43 3453ft 117kts
02-Aug-18 20:36 33.685140 -117.093484 42 2996ft 112kts
02-Aug-18 20:37 33.705883 -117.065933 42 2502ft 113kts
02-Aug-18 20:38 33.717031 -117.029423 68 2295ft 121kts
02-Aug-18 20:39 33.725503 -116.995014 61 2229ft 98kts
02-Aug-18 20:40 33.741862 -117.002321 264 1901ft 87kts
02-Aug-18 20:41 33.732692 -117.024363 245 1516ft 42kts
02-Aug-18 20:42 33.731258 -117.026158 62 1516ft 23kts
02-Aug-18 20:43 33.731874 -117.019784 155 1516ft 13kts
02-Aug-18 20:44 33.731424 -117.019190 63 1516ft 0kts

Navigation Log

Ident Type
Flight plan parsing failed, navigation log unavailable